createdAt,value
2017-04-02T00:00:33.882Z,1003.58
2017-04-02T00:01:14.368Z,1003.6
2017-04-02T00:01:54.849Z,1003.66
2017-04-02T00:02:35.327Z,1003.62
2017-04-02T00:03:15.874Z,1003.69
2017-04-02T00:03:56.281Z,1003.62
2017-04-02T00:04:36.749Z,1003.65
2017-04-02T00:06:54.605Z,1003.64
2017-04-02T00:07:35.009Z,1003.67
2017-04-02T00:08:15.488Z,1003.68
2017-04-02T00:10:08.000Z,1003.63
2017-04-02T00:10:48.488Z,1003.59
2017-04-02T00:11:28.901Z,1003.61
2017-04-02T00:13:26.540Z,1003.56
2017-04-02T00:14:07.040Z,1003.58
2017-04-02T00:14:47.517Z,1003.61
2017-04-02T00:15:28.016Z,1003.59
2017-04-02T00:16:08.436Z,1003.6
2017-04-02T00:16:48.909Z,1003.59
2017-04-02T00:17:29.366Z,1003.59
2017-04-02T00:18:09.862Z,1003.58
2017-04-02T00:18:50.276Z,1003.57
2017-04-02T00:20:42.825Z,1003.63
2017-04-02T00:21:23.302Z,1003.58
2017-04-02T00:22:03.833Z,1003.59
2017-04-02T00:22:44.307Z,1003.6
2017-04-02T00:23:24.804Z,1003.61
2017-04-02T00:25:52.778Z,1003.6
2017-04-02T00:26:33.249Z,1003.64
2017-04-02T00:27:13.722Z,1003.6
2017-04-02T00:27:54.168Z,1003.62
2017-04-02T00:28:34.650Z,1003.62
2017-04-02T00:29:15.147Z,1003.63
2017-04-02T00:29:55.620Z,1003.61
2017-04-02T00:30:36.110Z,1003.61
2017-04-02T00:31:16.584Z,1003.6
2017-04-02T00:31:57.038Z,1003.6
2017-04-02T00:32:37.487Z,1003.61
2017-04-02T00:33:17.944Z,1003.56
2017-04-02T00:35:30.656Z,1003.63
2017-04-02T00:36:11.115Z,1003.64
2017-04-02T00:36:51.616Z,1003.64
2017-04-02T00:37:32.077Z,1003.62
2017-04-02T00:38:12.529Z,1003.64
2017-04-02T00:40:40.495Z,1003.66
2017-04-02T00:41:20.990Z,1003.64
2017-04-02T00:42:01.494Z,1003.68
2017-04-02T00:42:41.957Z,1003.66
2017-04-02T00:43:22.470Z,1003.72
2017-04-02T00:44:02.887Z,1003.68
2017-04-02T00:46:30.881Z,1003.72
2017-04-02T00:47:11.382Z,1003.76
2017-04-02T00:47:51.826Z,1003.73
2017-04-02T00:48:32.283Z,1003.73
2017-04-02T00:49:12.767Z,1003.76
2017-04-02T00:51:25.461Z,1003.74
2017-04-02T00:52:05.949Z,1003.76
2017-04-02T00:52:46.424Z,1003.8
2017-04-02T00:53:26.928Z,1003.78
2017-04-02T00:54:07.412Z,1003.75
2017-04-02T00:54:47.901Z,1003.77
2017-04-02T00:55:28.384Z,1003.76
2017-04-02T00:56:08.841Z,1003.8
2017-04-02T00:56:49.341Z,1003.79
2017-04-02T00:57:29.824Z,1003.74
2017-04-02T00:58:10.276Z,1003.78
2017-04-02T00:58:50.750Z,1003.77
2017-04-02T00:59:31.275Z,1003.76
2017-04-02T01:00:11.725Z,1003.78
2017-04-02T01:00:52.197Z,1003.78
2017-04-02T01:01:32.684Z,1003.77
2017-04-02T01:02:13.132Z,1003.78
2017-04-02T01:02:53.597Z,1003.8
2017-04-02T01:03:34.060Z,1003.8
2017-04-02T01:04:14.540Z,1003.79
2017-04-02T01:04:54.940Z,1003.83
2017-04-02T01:05:35.404Z,1003.78
2017-04-02T01:07:53.208Z,1003.75
2017-04-02T01:08:33.704Z,1003.74
2017-04-02T01:09:14.174Z,1003.71
2017-04-02T01:09:54.691Z,1003.72
2017-04-02T01:10:35.172Z,1003.7
2017-04-02T01:11:15.654Z,1003.74
2017-04-02T01:11:56.120Z,1003.69
2017-04-02T01:12:36.586Z,1003.66
2017-04-02T01:13:17.054Z,1003.71
2017-04-02T01:13:57.579Z,1003.65
2017-04-02T01:14:38.032Z,1003.68
2017-04-02T01:15:18.484Z,1003.67
2017-04-02T01:15:58.925Z,1003.66
2017-04-02T01:16:39.384Z,1003.65
2017-04-02T01:18:31.928Z,1003.66
2017-04-02T01:19:12.428Z,1003.66
2017-04-02T01:19:52.924Z,1003.69
2017-04-02T01:20:33.408Z,1003.72
2017-04-02T01:21:13.925Z,1003.7
2017-04-02T01:21:54.432Z,1003.71
2017-04-02T01:22:34.844Z,1003.71
2017-04-02T01:23:15.331Z,1003.76
2017-04-02T01:23:55.833Z,1003.73
2017-04-02T01:24:36.286Z,1003.75
2017-04-02T01:25:16.757Z,1003.71
2017-04-02T01:25:57.230Z,1003.72
2017-04-02T01:26:37.746Z,1003.71
2017-04-02T01:27:18.196Z,1003.7
2017-04-02T01:29:30.917Z,1003.62
2017-04-02T01:30:11.392Z,1003.57
2017-04-02T01:30:51.854Z,1003.64
2017-04-02T01:31:32.334Z,1003.69
2017-04-02T01:32:12.779Z,1003.69
2017-04-02T01:32:53.240Z,1003.65
2017-04-02T01:34:45.796Z,1003.67
2017-04-02T01:35:26.407Z,1003.69
2017-04-02T01:36:06.874Z,1003.67
2017-04-02T01:36:47.350Z,1003.67
2017-04-02T01:37:27.823Z,1003.68
2017-04-02T01:38:08.327Z,1003.7
2017-04-02T01:38:48.808Z,1003.68
2017-04-02T01:39:29.271Z,1003.73
2017-04-02T01:40:09.730Z,1003.72
2017-04-02T01:42:07.397Z,1003.74
2017-04-02T01:42:47.839Z,1003.71
2017-04-02T01:43:28.318Z,1003.75
2017-04-02T01:44:08.763Z,1003.72
2017-04-02T01:44:49.235Z,1003.7
2017-04-02T01:45:29.663Z,1003.74
2017-04-02T01:46:10.121Z,1003.72
2017-04-02T01:46:50.563Z,1003.74
2017-04-02T01:47:31.039Z,1003.72
2017-04-02T01:48:11.471Z,1003.74
2017-04-02T01:48:51.935Z,1003.72
2017-04-02T01:49:32.379Z,1003.77
2017-04-02T01:50:12.879Z,1003.78
2017-04-02T01:50:53.326Z,1003.78
2017-04-02T01:51:33.793Z,1003.76
2017-04-02T01:52:14.276Z,1003.78
2017-04-02T01:52:54.807Z,1003.74
2017-04-02T01:53:35.293Z,1003.75
2017-04-02T01:54:15.710Z,1003.75
2017-04-02T01:54:56.210Z,1003.75
2017-04-02T01:57:24.092Z,1003.75
2017-04-02T01:58:04.544Z,1003.76
2017-04-02T01:58:45.044Z,1003.76
2017-04-02T01:59:25.573Z,1003.75
2017-04-02T02:00:06.012Z,1003.76
2017-04-02T02:00:46.484Z,1003.75
2017-04-02T02:01:26.952Z,1003.75
2017-04-02T02:02:07.408Z,1003.72
2017-04-02T02:02:47.850Z,1003.71
2017-04-02T02:03:28.308Z,1003.72
2017-04-02T02:04:08.780Z,1003.73
2017-04-02T02:04:49.235Z,1003.72
2017-04-02T02:05:29.681Z,1003.72
2017-04-02T02:06:10.126Z,1003.71
2017-04-02T02:06:50.559Z,1003.71
2017-04-02T02:07:31.031Z,1003.75
2017-04-02T02:09:48.843Z,1003.79
2017-04-02T02:10:29.353Z,1003.78
2017-04-02T02:11:09.775Z,1003.73
2017-04-02T02:11:50.264Z,1003.8
2017-04-02T02:12:30.752Z,1003.78
2017-04-02T02:13:11.230Z,1003.79
2017-04-02T02:13:51.700Z,1003.79
2017-04-02T02:14:32.189Z,1003.81
2017-04-02T02:15:12.654Z,1003.8
2017-04-02T02:15:53.149Z,1003.8
2017-04-02T02:16:33.540Z,1003.84
2017-04-02T02:17:13.973Z,1003.78
2017-04-02T02:19:26.662Z,1003.76
2017-04-02T02:20:07.133Z,1003.75
2017-04-02T02:20:47.593Z,1003.75
2017-04-02T02:21:28.014Z,1003.73
2017-04-02T02:22:08.453Z,1003.69
2017-04-02T02:22:48.932Z,1003.75
2017-04-02T02:23:29.370Z,1003.72
2017-04-02T02:24:09.822Z,1003.7
2017-04-02T02:24:50.279Z,1003.69
2017-04-02T02:25:30.704Z,1003.69
2017-04-02T02:26:11.185Z,1003.74
2017-04-02T02:26:51.684Z,1003.75
2017-04-02T02:27:32.107Z,1003.73
2017-04-02T02:28:12.574Z,1003.73
2017-04-02T02:28:53.018Z,1003.74
2017-04-02T02:30:45.550Z,1003.79
2017-04-02T02:31:26.021Z,1003.79
2017-04-02T02:32:06.509Z,1003.77
2017-04-02T02:32:46.986Z,1003.85
2017-04-02T02:33:27.476Z,1003.86
2017-04-02T02:34:07.923Z,1003.85
2017-04-02T02:34:48.407Z,1003.86
2017-04-02T02:35:28.895Z,1003.9
2017-04-02T02:36:09.371Z,1003.89
2017-04-02T02:36:49.873Z,1003.87
2017-04-02T02:37:30.335Z,1003.89
2017-04-02T02:39:27.923Z,1003.9
2017-04-02T02:40:08.393Z,1003.93
2017-04-02T02:40:48.877Z,1003.92
2017-04-02T02:41:29.443Z,1003.96
2017-04-02T02:42:09.990Z,1003.93
2017-04-02T02:42:50.452Z,1003.92
2017-04-02T02:43:31.003Z,1003.93
2017-04-02T02:44:11.449Z,1003.97
2017-04-02T02:44:51.936Z,1003.98
2017-04-02T02:45:32.406Z,1004.02
2017-04-02T02:46:12.925Z,1004.05
2017-04-02T02:46:53.376Z,1004.01
2017-04-02T02:47:33.804Z,1003.99
2017-04-02T02:48:14.232Z,1004.05
2017-04-02T02:50:42.179Z,1004.06
2017-04-02T02:51:22.637Z,1004.07
2017-04-02T02:52:03.114Z,1004.03
2017-04-02T02:52:43.575Z,1004.04
2017-04-02T02:53:24.089Z,1004.03
2017-04-02T02:54:04.515Z,1003.99
2017-04-02T02:54:44.956Z,1004.02
2017-04-02T02:55:25.390Z,1004.03
2017-04-02T02:56:05.877Z,1004.09
2017-04-02T02:58:33.815Z,1004.11
2017-04-02T02:59:14.281Z,1004.15
2017-04-02T02:59:54.770Z,1004.12
2017-04-02T03:00:35.276Z,1004.12
2017-04-02T03:01:15.782Z,1004.13
2017-04-02T03:01:56.248Z,1004.08
2017-04-02T03:02:36.679Z,1004.1
2017-04-02T03:03:17.174Z,1004.11
2017-04-02T03:03:57.638Z,1004.12
2017-04-02T03:06:15.443Z,1004.15
2017-04-02T03:06:55.907Z,1004.12
2017-04-02T03:07:36.379Z,1004.12
2017-04-02T03:08:16.827Z,1004.14
2017-04-02T03:08:57.272Z,1004.14
2017-04-02T03:09:37.756Z,1004.11
2017-04-02T03:10:18.190Z,1004.09
2017-04-02T03:12:10.742Z,1004.14
2017-04-02T03:12:51.248Z,1004.1
2017-04-02T03:13:31.713Z,1004.07
2017-04-02T03:14:12.185Z,1004.09
2017-04-02T03:14:52.629Z,1004.09
2017-04-02T03:15:33.094Z,1004.09
2017-04-02T03:17:30.731Z,1004.11
2017-04-02T03:18:11.197Z,1004.06
2017-04-02T03:18:51.702Z,1004.09
2017-04-02T03:19:32.163Z,1004.08
2017-04-02T03:20:12.652Z,1004.06
2017-04-02T03:20:53.122Z,1004.1
2017-04-02T03:21:33.568Z,1004.15
2017-04-02T03:22:14.035Z,1004.11
2017-04-02T03:22:54.474Z,1004.14
2017-04-02T03:24:47.030Z,1004.1
2017-04-02T03:25:27.514Z,1004.13
2017-04-02T03:26:08.014Z,1004.11
2017-04-02T03:26:48.430Z,1004.1
2017-04-02T03:28:41.074Z,1004.12
2017-04-02T03:29:21.666Z,1004.15
2017-04-02T03:30:02.139Z,1004.12
2017-04-02T03:30:42.627Z,1004.15
2017-04-02T03:31:23.102Z,1004.13
2017-04-02T03:32:03.600Z,1004.12
2017-04-02T03:32:44.069Z,1004.13
2017-04-02T03:33:24.498Z,1004.17
2017-04-02T03:34:04.946Z,1004.12
2017-04-02T03:34:45.390Z,1004.15
2017-04-02T03:35:25.810Z,1004.18
2017-04-02T03:37:23.446Z,1004.2
2017-04-02T03:38:03.928Z,1004.21
2017-04-02T03:38:44.389Z,1004.22
2017-04-02T03:39:24.924Z,1004.2
2017-04-02T03:40:05.409Z,1004.22
2017-04-02T03:40:45.894Z,1004.22
2017-04-02T03:41:26.382Z,1004.2
2017-04-02T03:42:06.833Z,1004.24
2017-04-02T03:42:47.282Z,1004.28
2017-04-02T03:45:05.157Z,1004.27
2017-04-02T03:45:45.573Z,1004.24
2017-04-02T03:46:26.046Z,1004.23
2017-04-02T03:48:38.729Z,1004.33
2017-04-02T03:49:19.187Z,1004.3
2017-04-02T03:49:59.737Z,1004.32
2017-04-02T03:50:40.137Z,1004.32
2017-04-02T03:51:20.601Z,1004.34
2017-04-02T03:52:01.069Z,1004.32
2017-04-02T03:52:41.484Z,1004.34
2017-04-02T03:53:21.943Z,1004.38
2017-04-02T03:54:02.363Z,1004.35
2017-04-02T03:54:42.863Z,1004.34
2017-04-02T03:55:23.261Z,1004.38
2017-04-02T03:56:03.719Z,1004.39
2017-04-02T03:56:44.162Z,1004.37
2017-04-02T03:57:24.626Z,1004.42
2017-04-02T03:58:05.080Z,1004.42
2017-04-02T03:58:45.534Z,1004.44
2017-04-02T03:59:25.950Z,1004.49
2017-04-02T04:00:06.437Z,1004.47
2017-04-02T04:00:46.882Z,1004.52
2017-04-02T04:01:27.329Z,1004.53
2017-04-02T04:02:07.747Z,1004.5
2017-04-02T04:02:48.181Z,1004.49
2017-04-02T04:05:00.848Z,1004.55
2017-04-02T04:05:41.325Z,1004.54
2017-04-02T04:06:21.847Z,1004.55
2017-04-02T04:07:02.326Z,1004.55
2017-04-02T04:07:42.808Z,1004.56
2017-04-02T04:08:23.318Z,1004.58
2017-04-02T04:09:04.462Z,1004.6
2017-04-02T04:09:44.877Z,1004.59
2017-04-02T04:11:42.565Z,1004.58
2017-04-02T04:12:23.013Z,1004.6
2017-04-02T04:13:03.479Z,1004.56
2017-04-02T04:13:43.989Z,1004.63
2017-04-02T04:14:24.466Z,1004.59
2017-04-02T04:15:05.010Z,1004.61
2017-04-02T04:15:45.483Z,1004.56
2017-04-02T04:16:25.946Z,1004.62
2017-04-02T04:17:06.438Z,1004.6
2017-04-02T04:17:46.919Z,1004.59
2017-04-02T04:18:27.393Z,1004.62
2017-04-02T04:20:40.255Z,1004.67
2017-04-02T04:21:20.723Z,1004.67
2017-04-02T04:22:01.230Z,1004.67
2017-04-02T04:22:41.631Z,1004.7
2017-04-02T04:23:22.103Z,1004.71
2017-04-02T04:24:02.526Z,1004.73
2017-04-02T04:26:00.152Z,1004.74
2017-04-02T04:26:40.619Z,1004.76
2017-04-02T04:27:21.089Z,1004.72
2017-04-02T04:28:01.578Z,1004.72
2017-04-02T04:28:41.981Z,1004.75
2017-04-02T04:29:22.420Z,1004.73
2017-04-02T04:30:02.892Z,1004.75
2017-04-02T04:30:43.335Z,1004.75
2017-04-02T04:33:11.275Z,1004.76
2017-04-02T04:33:51.783Z,1004.75
2017-04-02T04:34:32.277Z,1004.76
2017-04-02T04:35:12.738Z,1004.78
2017-04-02T04:35:53.197Z,1004.79
2017-04-02T04:36:33.642Z,1004.82
2017-04-02T04:37:14.082Z,1004.82
2017-04-02T04:37:54.509Z,1004.81
2017-04-02T04:38:34.919Z,1004.82
2017-04-02T04:39:15.364Z,1004.81
2017-04-02T04:39:55.896Z,1004.86
2017-04-02T04:40:36.320Z,1004.85
2017-04-02T04:41:16.808Z,1004.85
2017-04-02T04:43:14.406Z,1004.87
2017-04-02T04:43:54.898Z,1004.91
2017-04-02T04:44:35.357Z,1004.91
2017-04-02T04:45:15.815Z,1004.94
2017-04-02T04:45:56.281Z,1004.9
2017-04-02T04:46:36.722Z,1004.95
2017-04-02T04:47:17.179Z,1004.97
2017-04-02T04:47:57.640Z,1004.93
2017-04-02T04:48:38.107Z,1004.93
2017-04-02T04:51:05.998Z,1005.04
2017-04-02T04:51:46.490Z,1005
2017-04-02T04:52:27.009Z,1005
2017-04-02T04:53:07.430Z,1005.02
2017-04-02T04:53:47.933Z,1005.01
2017-04-02T04:54:28.416Z,1005.03
2017-04-02T04:55:08.882Z,1005.07
2017-04-02T04:55:49.347Z,1005.06
2017-04-02T04:56:29.870Z,1005.09
2017-04-02T04:57:10.279Z,1005.1
2017-04-02T04:57:50.724Z,1005.09
2017-04-02T04:58:31.204Z,1005.09
2017-04-02T05:00:23.767Z,1005.13
2017-04-02T05:01:04.255Z,1005.11
2017-04-02T05:01:45.241Z,1005.12
2017-04-02T05:02:25.738Z,1005.15
2017-04-02T05:03:06.189Z,1005.16
2017-04-02T05:03:46.707Z,1005.18
2017-04-02T05:04:27.198Z,1005.18
2017-04-02T05:05:07.706Z,1005.19
2017-04-02T05:05:48.211Z,1005.17
2017-04-02T05:06:28.673Z,1005.18
2017-04-02T05:07:09.171Z,1005.2
2017-04-02T05:07:49.623Z,1005.21
2017-04-02T05:10:07.421Z,1005.27
2017-04-02T05:10:47.888Z,1005.27
2017-04-02T05:11:28.325Z,1005.28
2017-04-02T05:12:08.797Z,1005.3
2017-04-02T05:12:49.214Z,1005.3
2017-04-02T05:13:29.645Z,1005.34
2017-04-02T05:15:47.475Z,1005.39
2017-04-02T05:16:27.958Z,1005.4
2017-04-02T05:18:45.790Z,1005.46
2017-04-02T05:19:26.283Z,1005.46
2017-04-02T05:20:06.775Z,1005.43
2017-04-02T05:20:47.247Z,1005.45
2017-04-02T05:21:27.730Z,1005.48
2017-04-02T05:22:08.215Z,1005.44
2017-04-02T05:22:48.662Z,1005.52
2017-04-02T05:23:29.129Z,1005.51
2017-04-02T05:24:09.553Z,1005.57
2017-04-02T05:24:50.010Z,1005.56
2017-04-02T05:25:30.457Z,1005.56
2017-04-02T05:26:10.924Z,1005.57
2017-04-02T05:26:51.330Z,1005.6
2017-04-02T05:27:31.789Z,1005.61
2017-04-02T05:28:12.236Z,1005.63
2017-04-02T05:28:52.683Z,1005.62
2017-04-02T05:29:33.108Z,1005.66
2017-04-02T05:30:13.548Z,1005.62
2017-04-02T05:30:54.015Z,1005.64
2017-04-02T05:31:34.451Z,1005.62
2017-04-02T05:32:14.896Z,1005.63
2017-04-02T05:32:55.324Z,1005.65
2017-04-02T05:33:35.768Z,1005.67
2017-04-02T05:34:16.257Z,1005.62
2017-04-02T05:34:56.705Z,1005.7
2017-04-02T05:35:37.161Z,1005.68
2017-04-02T05:36:17.621Z,1005.72
2017-04-02T05:36:58.066Z,1005.69
2017-04-02T05:37:38.523Z,1005.72
2017-04-02T05:38:18.957Z,1005.71
2017-04-02T05:38:59.422Z,1005.71
2017-04-02T05:39:39.882Z,1005.72
2017-04-02T05:40:20.372Z,1005.73
2017-04-02T05:41:01.395Z,1005.74
2017-04-02T05:41:41.832Z,1005.71
2017-04-02T05:42:22.305Z,1005.76
2017-04-02T05:43:02.799Z,1005.73
2017-04-02T05:43:43.202Z,1005.76
2017-04-02T05:44:23.686Z,1005.82
2017-04-02T05:45:04.109Z,1005.79
2017-04-02T05:45:44.535Z,1005.82
2017-04-02T05:46:24.981Z,1005.86
2017-04-02T05:47:05.424Z,1005.86
2017-04-02T05:47:45.848Z,1005.85
2017-04-02T05:49:58.649Z,1005.9
2017-04-02T05:50:39.063Z,1005.92
2017-04-02T05:51:19.543Z,1005.89
2017-04-02T05:51:59.989Z,1005.94
2017-04-02T05:52:40.447Z,1005.93
2017-04-02T05:53:20.853Z,1005.96
2017-04-02T05:54:01.343Z,1005.98
2017-04-02T05:54:41.825Z,1005.96
2017-04-02T05:55:22.234Z,1005.97
2017-04-02T05:56:02.695Z,1005.96
2017-04-02T05:56:43.145Z,1005.98
2017-04-02T05:57:23.578Z,1006.02
2017-04-02T05:58:04.039Z,1006
2017-04-02T05:58:44.488Z,1006.03
2017-04-02T05:59:24.920Z,1006.01
2017-04-02T06:00:05.400Z,1006.02
2017-04-02T06:00:45.881Z,1006.05
2017-04-02T06:01:26.360Z,1006.05
2017-04-02T06:03:39.037Z,1006.09
2017-04-02T06:04:19.555Z,1006.13
2017-04-02T06:05:00.051Z,1006.12
2017-04-02T06:05:40.573Z,1006.19
2017-04-02T06:06:21.046Z,1006.19
2017-04-02T06:07:01.532Z,1006.22
2017-04-02T06:07:42.014Z,1006.2
2017-04-02T06:08:22.473Z,1006.22
2017-04-02T06:09:02.963Z,1006.28
2017-04-02T06:09:43.438Z,1006.27
2017-04-02T06:10:23.906Z,1006.31
2017-04-02T06:11:04.410Z,1006.31
2017-04-02T06:11:44.899Z,1006.31
2017-04-02T06:12:25.379Z,1006.35
2017-04-02T06:13:05.859Z,1006.36
2017-04-02T06:13:46.344Z,1006.35
2017-04-02T06:14:26.832Z,1006.35
2017-04-02T06:15:07.355Z,1006.37
2017-04-02T06:15:47.884Z,1006.38
2017-04-02T06:16:28.331Z,1006.43
2017-04-02T06:17:08.830Z,1006.43
2017-04-02T06:17:50.142Z,1006.46
2017-04-02T06:18:30.685Z,1006.49
2017-04-02T06:19:11.973Z,1006.5
2017-04-02T06:19:52.931Z,1006.49
2017-04-02T06:20:33.364Z,1006.54
2017-04-02T06:21:13.764Z,1006.59
2017-04-02T06:21:54.224Z,1006.58
2017-04-02T06:22:34.685Z,1006.58
2017-04-02T06:23:15.135Z,1006.58
2017-04-02T06:25:07.675Z,1006.62
2017-04-02T06:25:48.163Z,1006.64
2017-04-02T06:26:28.630Z,1006.64
2017-04-02T06:27:09.107Z,1006.66
2017-04-02T06:27:49.589Z,1006.68
2017-04-02T06:28:30.131Z,1006.7
2017-04-02T06:29:10.574Z,1006.66
2017-04-02T06:29:51.040Z,1006.71
2017-04-02T06:30:31.535Z,1006.69
2017-04-02T06:31:12.007Z,1006.69
2017-04-02T06:31:52.505Z,1006.66
2017-04-02T06:32:32.980Z,1006.7
2017-04-02T06:33:13.466Z,1006.71
2017-04-02T06:33:53.987Z,1006.66
2017-04-02T06:34:34.454Z,1006.71
2017-04-02T06:35:14.910Z,1006.73
2017-04-02T06:35:55.358Z,1006.75
2017-04-02T06:36:35.822Z,1006.69
2017-04-02T06:37:16.250Z,1006.72
2017-04-02T06:39:08.801Z,1006.71
2017-04-02T06:39:49.308Z,1006.73
2017-04-02T06:40:29.808Z,1006.72
2017-04-02T06:41:10.276Z,1006.68
2017-04-02T06:41:50.778Z,1006.71
2017-04-02T06:42:31.239Z,1006.73
2017-04-02T06:43:11.703Z,1006.73
2017-04-02T06:45:09.312Z,1006.7
2017-04-02T06:45:49.769Z,1006.76
2017-04-02T06:46:30.236Z,1006.73
2017-04-02T06:47:10.657Z,1006.77
2017-04-02T06:47:51.103Z,1006.76
2017-04-02T07:17:13.564Z,1007.17
2017-04-02T07:53:12.201Z,1007.71
2017-04-02T07:53:58.233Z,1007.68
2017-04-02T07:54:39.432Z,1007.68
2017-04-02T07:55:19.901Z,1007.71
2017-04-02T07:56:00.384Z,1007.72
2017-04-02T07:56:40.875Z,1007.71
2017-04-02T07:57:21.379Z,1007.73
2017-04-02T07:58:01.874Z,1007.74
2017-04-02T07:58:42.377Z,1007.73
2017-04-02T07:59:22.835Z,1007.78
2017-04-02T08:00:03.326Z,1007.68
2017-04-02T08:00:43.802Z,1007.73
2017-04-02T08:01:24.258Z,1007.73
2017-04-02T08:02:04.745Z,1007.74
2017-04-02T08:02:45.154Z,1007.74
2017-04-02T08:03:25.658Z,1007.73
2017-04-02T08:04:06.648Z,1007.74
2017-04-02T08:05:59.942Z,1007.79
2017-04-02T08:06:40.442Z,1007.77
2017-04-02T08:07:21.066Z,1007.74
2017-04-02T08:08:04.905Z,1007.68
2017-04-02T08:10:32.800Z,1007.65
2017-04-02T08:11:20.039Z,1007.63
2017-04-02T08:12:01.136Z,1007.64
2017-04-02T08:12:42.595Z,1007.63
2017-04-02T08:13:37.643Z,1007.66
2017-04-02T08:14:36.617Z,1007.7
2017-04-02T08:15:25.077Z,1007.68
2017-04-02T08:17:53.042Z,1007.66
2017-04-02T08:18:42.641Z,1007.69
2017-04-02T08:19:26.082Z,1007.68
2017-04-02T08:20:06.574Z,1007.68
2017-04-02T08:20:47.270Z,1007.74
2017-04-02T08:21:27.724Z,1007.69
2017-04-02T08:22:08.204Z,1007.65
2017-04-02T08:22:56.917Z,1007.64
2017-04-02T08:23:37.399Z,1007.68
2017-04-02T08:24:17.891Z,1007.74
2017-04-02T08:26:15.523Z,1007.76
2017-04-02T08:27:04.159Z,1007.77
2017-04-02T08:27:44.626Z,1007.73
2017-04-02T08:30:14.687Z,1007.89
2017-04-02T08:32:34.205Z,1007.84
2017-04-02T08:35:01.157Z,1008.04
2017-04-02T08:35:41.661Z,1008.17
2017-04-02T08:38:23.359Z,1008.57
2017-04-02T08:39:03.783Z,1008.29
2017-04-02T08:40:40.317Z,1008.27
2017-04-02T08:42:08.444Z,1008.22
2017-04-02T08:44:37.668Z,1008.1
2017-04-02T08:46:51.866Z,1007.89
2017-04-02T08:49:34.118Z,1007.86
2017-04-02T08:50:15.723Z,1007.92
2017-04-02T08:51:37.329Z,1008.07
2017-04-02T08:52:17.776Z,1008.17
2017-04-02T08:53:00.866Z,1008.26
2017-04-02T08:53:41.316Z,1008.19
2017-04-02T08:54:22.669Z,1007.98
2017-04-02T08:55:11.773Z,1007.94
2017-04-02T08:56:33.195Z,1008.11
2017-04-02T08:58:17.282Z,1008.11
2017-04-02T09:19:08.840Z,1007.98
2017-04-02T09:20:53.903Z,1008.15
2017-04-02T11:48:48.577Z,1009.92
2017-04-02T11:49:29.075Z,1009.73
2017-04-02T11:50:09.547Z,1009.48
2017-04-02T11:50:50.282Z,1009.49
2017-04-02T11:51:30.762Z,1009.65
2017-04-02T11:52:11.207Z,1009.67
2017-04-02T15:40:58.403Z,1007.94
2017-04-02T15:41:47.449Z,1008.16
2017-04-02T15:42:28.555Z,1007.92
2017-04-02T15:43:28.171Z,1008.1
2017-04-02T15:55:10.121Z,1008.13
2017-04-02T16:44:08.919Z,1008.08
2017-04-02T16:47:22.756Z,1008.14
2017-04-02T16:48:46.268Z,1008.12
2017-04-02T16:52:14.225Z,1008.15
2017-04-02T17:34:27.625Z,1008.26
2017-04-02T18:26:55.188Z,1008.74
2017-04-02T18:31:33.026Z,1008.83
2017-04-02T18:52:20.764Z,1009.11
2017-04-02T18:53:01.254Z,1009.09
2017-04-02T18:53:41.731Z,1009.1
2017-04-02T18:54:22.243Z,1009.11
2017-04-02T18:55:02.675Z,1009.11
2017-04-02T18:57:41.763Z,1009.17
2017-04-02T18:58:22.241Z,1009.15
2017-04-02T18:59:02.707Z,1009.16
2017-04-02T18:59:43.172Z,1009.2
2017-04-02T19:00:23.621Z,1009.23
2017-04-02T19:02:43.406Z,1009.24
2017-04-02T19:03:25.661Z,1009.26
2017-04-02T19:07:55.432Z,1009.3
2017-04-02T19:13:40.488Z,1009.44
2017-04-02T19:15:17.648Z,1009.41
2017-04-02T19:15:59.825Z,1009.44
